Aérodrome :
LOGIN :

S'inscrire | Disclaimer

   EN    FR    IT 

 










Légende :    VFR   VFR Marginal   IFR   IFR Intensif   IFR Très Intensif
Visi : 
Plafond : 
>= 8 km
>= 3000ft
5 à 8 km
1000 à 3000 ft
1500m à 5 km
500 à 1000 ft
800 à 1500m
200 à 500 ft
< 800m
< 200 ft
Symboles :   Orages  Brouillard  Fortes neiges  Fortes précipitations  Vent > 20 kt
SIGMETs :   Divers  Orages  Givrage  Turbulence  Onde Orograph.  Cendres Volcan.






- Altitude de l'aérodrome : 408 ft
- Code IATA : FKB


EDSB - Karlsruhe Baden Baden

DERNIER METAR :
  • 021850Z 22005KT CAVOK 17/14 Q1016

METARs EXPIRÉS :
  • 021820Z 21008KT CAVOK 19/14 Q1015
  • 021750Z 21007KT CAVOK 20/15 Q1015
  • 021720Z 21006KT CAVOK 19/15 Q1015
  • 021650Z 16008KT 130V190 CAVOK 19/15 Q1015
  • 021620Z 22003KT 170V320 9999 VCSH FEW027CB SCT059 20/14 Q1015

TAF TAF EDSB
Valide du 02 à 18h jusqu'au 03 à 18h UTC


021700Z 0218/0318 20004KT 9999 SCT035
BECMG 0308/0310 20009KT
TEMPO 0306/0318 SHRA SCT010 BKN030CB
PROB30
TEMPO 0307/0318 24015G25KT 3000 TSRA BKN010



MET'MAP, la Météo Aéronautique d'un coup d'oeil ! - Copyright ORBIFLY Décembre 2007 - Disclaimer

ORBIFLY MET'MAP TEAM :

Programmation & Développement : Alexandra Zaïnal
Sur une idée originale de : Baudouin d'Aumeries
Assistance à la programmation : Marc-Olivier Méhu
Soutien technique & logistique : Manuel Goepfert

Contact : metmap@orbifly.com




SOURCES & CREDITS :

   NOAA